Longleaf, LA (71448)

9:56 PM CDT on May 26, 2017 (GMT -0500)
Pine Prairie, LA. | | Change Station
Active Advisory: Flood Warning

Elev 69 ft 30.80 °N, 92.42 °W | Updated 16 seconds ago

Mostly Cloudy
Mostly Cloudy
75.0 °F
Feels Like 72 °F
N
1.1
Wind Variable Wind from ESE

Today
High -- | Low -- °F
--% Chance of Precip.
Yesterday
High -- | Low -- °F
Precip. -- in
Pressure 29.94 in
Visibility 10.0 miles
Clouds Mostly Cloudy 3100 ft
Heat Index 72 °F
Dew Point 75 °F
Humidity 99%
Rainfall 0.00 in
Snow Depth Not available.
6:09 AM 8:05 PM
Waxing Crescent, 3% visible
METAR KACP 270235Z AUTO 00000KT 10SM BKN031 24/23 A2994 RMK AO2 T02410225
Pressure 29.94 in
Visibility 10.0 miles
Clouds Mostly Cloudy 3100 ft
Heat Index 72 °F
Dew Point 75 °F
Humidity 99%
Rainfall 0.00 in
Snow Depth Not available.
6:09 AM 8:05 PM
Waxing Crescent, 3% visible
METAR KACP 270235Z AUTO 00000KT 10SM BKN031 24/23 A2994 RMK AO2 T02410225

Get Your Daily Forecast Email!

Thanks for signing up!

Be on the lookout for a verification email in your inbox.

You'll start receiving severe weather alerts in your inbox..

×

10-Day Weather Forecast

Almanac

Astronomy

May. 26, 2017 Rise Set
Actual Time
Civil Twilight
Nautical Twilight
Astronomical Twilight
Moon
Length of Visible Light
Length of Day
Tomorrow will be .
, % of the Moon is Illuminated

Today's Extremes

State Highs State Lows

Community

WunderPhotos

Category 6

Welcome to Category 6. This is the collective home for Weather Underground's featured writeups by Dr. Jeff Masters (right), Bob Henson (left), Chris Burt, and other regular contributors.

Nearby

Air Quality

  Air Quality AQ Index Pollutant
Not available.

Snow Depth

Station Depth Elevation

Earthquake Activity

City Distance Mag. Time & Date
Minimum magnitude displayed is 2.5.

Coastal Water Temperatures

Place Temperature

Stations

Nearby Weather Stations

Station Location Temp. Windchill Dew Point Humidity Wind Precip. Elev Updated Type
                   

Watches & Warnings

Flood Warning
Issued: 7:30 PM CDT May. 26, 2017 – National Weather Service

The Flood Warning continues for
the Calcasieu River near Glenmora.
* From Sunday afternoon to Monday morning... or until the warning is
cancelled.
* At 6:45 PM Friday the stage was 10.5 feet.
* Minor flooding is forecast.
* Flood stage is 12.0 feet.
* Forecast... the river is expected to rise to near flood stage Sunday
early afternoon.
* Impact... at stages near 12.0 feet... when the river is rising and
the gauge reading is forecast to reach 12 feet or higher. Roads
upstream from Glenmora, including strothers crossing Road near the
community of Calcasieu and Price Crossing Road near Hineston have
water on them and are subject to being closed. Also, flooding of
forested areas near the river will occur.


Lat... Lon 3115 9275 3105 9265 3090 9262 3090 9269 3113 9279